الصفحة الرئيسية
METAR-TAF:

METAR-TAF

مطار :

Gifu, اليابان

دائرة عرض: 35-23N, خط طول: 136-52E, ارتفاع: 39 متر

مراقبة الطقس الحالي

تاريخ ووقت الإصدار 9ساعات و 12 دقيقة قبل الساعة 10:22UTC
ريح 7 عقدة من الشمال/الشمال الغربي
درجة الحرارة 5°درجة مئوية
الرطوبة 70%
ضغط 1018 hPa
الرؤية 10 كم أو أكثر
غيوم قليلة على ارتفاع 2000 قدم
غيوم متفرقة على ارتفاع 5000 قدم
غيوم مفككة على ارتفاع 8000 قدم

METAR: RJNG 031022Z 34007KT 9999 FEW020 SCT050 BKN080 05/00 Q1018 RMK 1CU020 4SC050 6AC080 A3008

زمن: 04:34 (19:34 UTC)


TAF: مفقودة

أرصاد الطقس والتوقعات من أكثر من 4000 مطار (تقارير الطقس للمطار METAR والتنبؤ بالطقس بالمطارTAF).

المحطات المتاحة هي النقط الصفراء والحمراء على الخريطة.

حرك المؤشر فوق النقطة لمعرفة اسم المحطة.

ثم انقر لمعرفة أرصاد وتوقعات الطقس.

لتغيير الخارطة: اضغط على الأزرار الخضراء مع رمز الصليب الأسود للتكبير. على الزر الأخضر مع شرطة للتصغير، أو على الأسهم الخضراء للخرائط المجاورة.


METAR-TAF: